createdAt,value
2023-02-12T00:01:12.859Z,20.00
2023-02-12T00:03:26.091Z,20.00
2023-02-12T00:03:40.661Z,24.13
2023-02-12T00:06:09.235Z,13.98
2023-02-12T00:08:26.049Z,13.98
2023-02-12T00:08:36.438Z,13.77
2023-02-12T00:11:13.189Z,16.70
2023-02-12T00:13:26.075Z,16.70
2023-02-12T00:13:40.058Z,16.83
2023-02-12T00:16:09.445Z,17.80
2023-02-12T00:18:26.082Z,17.80
2023-02-12T00:18:36.125Z,20.92
2023-02-12T00:21:03.648Z,23.02
2023-02-12T00:23:26.077Z,23.02
2023-02-12T00:23:30.156Z,24.52
2023-02-12T00:25:56.918Z,27.20
2023-02-12T00:28:24.007Z,18.58
2023-02-12T00:28:26.171Z,18.58
2023-02-12T00:30:50.517Z,21.15
2023-02-12T00:33:17.048Z,19.77
2023-02-12T00:33:26.071Z,19.77
2023-02-12T00:35:43.996Z,25.13
2023-02-12T00:38:10.457Z,23.25
2023-02-12T00:38:26.075Z,23.25
2023-02-12T00:40:36.838Z,27.70
2023-02-12T00:43:03.390Z,19.00
2023-02-12T00:43:26.069Z,19.00
2023-02-12T00:45:29.774Z,14.52
2023-02-12T00:47:56.141Z,16.50
2023-02-12T00:48:26.091Z,16.50
2023-02-12T00:50:22.546Z,21.95
2023-02-12T00:52:48.922Z,17.05
2023-02-12T00:53:26.061Z,17.05
2023-02-12T00:55:15.410Z,18.23
2023-02-12T00:57:41.842Z,13.73
2023-02-12T00:58:26.063Z,13.73
2023-02-12T01:00:08.740Z,16.65
2023-02-12T01:02:35.132Z,12.02
2023-02-12T01:03:26.072Z,12.02
2023-02-12T01:05:01.632Z,16.83
2023-02-12T01:07:28.183Z,20.35
2023-02-12T01:08:26.073Z,20.35
2023-02-12T01:09:54.574Z,20.45
2023-02-12T01:12:20.978Z,19.85
2023-02-12T01:13:26.053Z,19.85
2023-02-12T01:14:47.380Z,24.58
2023-02-12T01:17:13.745Z,22.48
2023-02-12T01:18:26.071Z,22.48
2023-02-12T01:19:40.187Z,20.48
2023-02-12T01:22:06.595Z,14.27
2023-02-12T01:23:26.061Z,14.27
2023-02-12T01:24:32.972Z,12.30
2023-02-12T01:26:59.406Z,13.90
2023-02-12T01:28:26.130Z,13.90
2023-02-12T01:29:25.763Z,20.33
2023-02-12T01:31:52.450Z,11.48
2023-02-12T01:33:26.085Z,11.48
2023-02-12T01:34:18.956Z,17.20
2023-02-12T01:36:45.345Z,12.75
2023-02-12T01:38:26.105Z,12.75
2023-02-12T01:39:12.246Z,9.48
2023-02-12T01:41:44.925Z,20.20
2023-02-12T01:43:26.114Z,20.20
2023-02-12T01:46:41.949Z,10.88
2023-02-12T01:48:26.113Z,10.88
2023-02-12T01:49:17.000Z,13.73
2023-02-12T01:51:46.159Z,14.98
2023-02-12T01:53:26.101Z,14.98
2023-02-12T01:54:15.238Z,14.23
2023-02-12T01:56:42.142Z,14.32
2023-02-12T01:58:26.068Z,14.32
2023-02-12T01:59:08.916Z,21.05
2023-02-12T02:01:35.700Z,22.67
2023-02-12T02:03:26.164Z,22.67
2023-02-12T02:04:24.892Z,17.38
2023-02-12T02:07:02.951Z,17.77
2023-02-12T02:08:26.105Z,17.77
2023-02-12T02:09:31.538Z,23.10
2023-02-12T02:12:16.549Z,27.60
2023-02-12T02:13:26.072Z,27.60
2023-02-12T02:14:44.332Z,18.15
2023-02-12T02:17:34.373Z,20.65
2023-02-12T02:18:26.081Z,20.65
2023-02-12T02:20:01.556Z,22.70
2023-02-12T02:22:41.022Z,16.92
2023-02-12T02:23:26.096Z,16.92
2023-02-12T02:25:22.441Z,17.25
2023-02-12T02:28:12.552Z,18.10
2023-02-12T02:28:26.339Z,18.10
2023-02-12T02:30:48.137Z,15.82
2023-02-12T02:33:25.952Z,24.90
2023-02-12T02:33:26.096Z,24.90
2023-02-12T02:36:15.609Z,12.48
2023-02-12T02:38:26.064Z,12.48
2023-02-12T02:38:45.566Z,18.23
2023-02-12T02:41:30.836Z,14.48
2023-02-12T02:43:26.063Z,14.48
2023-02-12T02:43:57.413Z,18.10
2023-02-12T02:46:32.528Z,22.30
2023-02-12T02:48:26.072Z,22.30
2023-02-12T02:49:03.155Z,28.00
2023-02-12T02:51:33.251Z,16.90
2023-02-12T02:53:26.114Z,16.90
2023-02-12T02:54:16.983Z,26.60
2023-02-12T02:56:45.898Z,17.17
2023-02-12T02:58:26.082Z,17.17
2023-02-12T02:59:16.943Z,16.02
2023-02-12T03:02:24.979Z,19.83
2023-02-12T03:03:26.200Z,19.83
2023-02-12T03:04:57.912Z,16.50
2023-02-12T03:07:50.042Z,17.83
2023-02-12T03:08:26.080Z,17.83
2023-02-12T03:10:47.134Z,12.20
2023-02-12T03:13:26.740Z,19.42
2023-02-12T03:13:26.898Z,19.42
2023-02-12T03:16:05.832Z,18.15
2023-02-12T03:18:26.118Z,18.15
2023-02-12T03:18:41.463Z,15.10
2023-02-12T03:21:13.551Z,20.05
2023-02-12T03:23:26.141Z,20.05
2023-02-12T03:23:46.521Z,32.53
2023-02-12T03:26:20.839Z,20.30
2023-02-12T03:28:26.221Z,20.30
2023-02-12T03:28:47.847Z,24.80
2023-02-12T03:31:23.731Z,16.33
2023-02-12T03:33:26.086Z,16.33
2023-02-12T03:34:11.992Z,14.07
2023-02-12T03:36:48.011Z,18.98
2023-02-12T03:38:26.117Z,18.98
2023-02-12T03:39:48.621Z,20.92
2023-02-12T03:42:32.675Z,15.57
2023-02-12T03:43:26.088Z,15.57
2023-02-12T03:45:20.785Z,16.70
2023-02-12T03:48:01.187Z,15.50
2023-02-12T03:48:26.127Z,15.50
2023-02-12T03:50:46.260Z,30.13
2023-02-12T03:53:12.780Z,28.05
2023-02-12T03:53:26.116Z,28.05
2023-02-12T03:55:43.274Z,13.40
2023-02-12T03:58:14.623Z,14.73
2023-02-12T03:58:26.104Z,14.73
2023-02-12T04:00:41.073Z,13.77
2023-02-12T04:03:07.753Z,20.30
2023-02-12T04:03:26.114Z,20.30
2023-02-12T04:05:34.178Z,22.20
2023-02-12T04:08:04.213Z,32.17
2023-02-12T04:08:26.095Z,32.17
2023-02-12T04:10:49.141Z,20.48
2023-02-12T04:13:40.338Z,23.42
2023-02-12T04:13:40.492Z,23.42
2023-02-12T04:16:33.182Z,25.08
2023-02-12T04:18:26.072Z,25.08
2023-02-12T04:19:00.709Z,24.63
2023-02-12T04:21:51.952Z,14.73
2023-02-12T04:23:26.107Z,14.73
2023-02-12T04:24:49.097Z,20.00
2023-02-12T04:27:44.151Z,19.70
2023-02-12T04:28:26.193Z,19.70
2023-02-12T04:30:24.768Z,14.15
2023-02-12T04:32:55.866Z,15.65
2023-02-12T04:33:26.091Z,15.65
2023-02-12T04:35:31.288Z,22.35
2023-02-12T04:38:06.550Z,16.30
2023-02-12T04:38:26.148Z,16.30
2023-02-12T04:40:33.155Z,17.02
2023-02-12T04:42:59.523Z,24.00
2023-02-12T04:43:26.150Z,24.00
2023-02-12T04:45:29.113Z,16.90
2023-02-12T04:47:55.763Z,17.77
2023-02-12T04:48:26.092Z,17.77
2023-02-12T04:50:22.730Z,17.95
2023-02-12T04:52:49.180Z,18.05
2023-02-12T04:53:26.103Z,18.05
2023-02-12T04:55:15.558Z,13.45
2023-02-12T04:57:42.047Z,18.38
2023-02-12T04:58:26.120Z,18.38
2023-02-12T05:00:15.519Z,20.17
2023-02-12T05:02:41.854Z,14.80
2023-02-12T05:03:26.114Z,14.80
2023-02-12T05:05:08.648Z,17.63
2023-02-12T05:07:35.116Z,22.20
2023-02-12T05:08:26.120Z,22.20
2023-02-12T05:10:01.507Z,13.38
2023-02-12T05:12:27.940Z,11.90
2023-02-12T05:13:26.117Z,11.90
2023-02-12T05:14:54.346Z,11.13
2023-02-12T05:17:23.488Z,13.30
2023-02-12T05:18:26.152Z,13.30
2023-02-12T05:19:50.240Z,19.63
2023-02-12T05:22:17.077Z,15.95
2023-02-12T05:23:26.127Z,15.95
2023-02-12T05:24:43.604Z,16.88
2023-02-12T05:27:09.969Z,13.93
2023-02-12T05:28:26.202Z,13.93
2023-02-12T05:29:37.120Z,14.82
2023-02-12T05:32:04.148Z,17.92
2023-02-12T05:33:26.121Z,17.92
2023-02-12T05:34:30.625Z,31.45
2023-02-12T05:36:57.014Z,14.60
2023-02-12T05:38:26.125Z,14.60
2023-02-12T05:39:23.775Z,25.92
2023-02-12T05:41:50.166Z,33.40
2023-02-12T05:43:26.125Z,33.40
2023-02-12T05:44:16.666Z,35.83
2023-02-12T05:46:43.571Z,25.13
2023-02-12T05:48:26.124Z,25.13
2023-02-12T05:49:10.910Z,16.73
2023-02-12T05:51:37.920Z,17.73
2023-02-12T05:53:26.091Z,17.73
2023-02-12T05:54:06.259Z,24.38
2023-02-12T05:56:44.386Z,25.92
2023-02-12T05:58:26.119Z,25.92
2023-02-12T05:59:29.071Z,27.42
2023-02-12T06:01:55.530Z,16.83
2023-02-12T06:03:26.106Z,16.83
2023-02-12T06:04:24.893Z,21.13
2023-02-12T06:06:52.278Z,22.80
2023-02-12T06:08:26.123Z,22.80
2023-02-12T06:09:19.180Z,20.52
2023-02-12T06:11:45.718Z,17.42
2023-02-12T06:13:26.124Z,17.42
2023-02-12T06:14:17.568Z,27.30
2023-02-12T06:16:48.315Z,21.13
2023-02-12T06:18:26.091Z,21.13
2023-02-12T06:19:15.035Z,8.77
2023-02-12T06:21:41.880Z,20.10
2023-02-12T06:23:26.148Z,20.10
2023-02-12T06:24:08.372Z,10.63
2023-02-12T06:26:34.808Z,25.33
2023-02-12T06:28:26.116Z,25.33
2023-02-12T06:29:01.504Z,15.27
2023-02-12T06:31:31.058Z,31.92
2023-02-12T06:33:26.099Z,31.92
2023-02-12T06:34:00.667Z,19.92
2023-02-12T06:36:29.225Z,23.48
2023-02-12T06:38:26.137Z,23.48
2023-02-12T06:38:55.650Z,36.58
2023-02-12T06:41:23.598Z,20.20
2023-02-12T06:43:26.119Z,20.20
2023-02-12T06:43:50.490Z,24.80
2023-02-12T06:46:17.883Z,11.40
2023-02-12T06:48:26.127Z,11.40
2023-02-12T06:48:44.434Z,33.85
2023-02-12T06:51:14.451Z,16.25
2023-02-12T06:53:26.126Z,16.25
2023-02-12T06:53:41.137Z,21.98
2023-02-12T06:56:13.131Z,20.35
2023-02-12T06:58:26.133Z,20.35
2023-02-12T06:58:41.990Z,26.52
2023-02-12T07:01:13.687Z,20.83
2023-02-12T07:03:26.153Z,20.83
2023-02-12T07:04:16.180Z,21.02
2023-02-12T07:06:42.800Z,19.80
2023-02-12T07:08:26.127Z,19.80
2023-02-12T07:09:09.222Z,25.63
2023-02-12T07:11:38.294Z,19.58
2023-02-12T07:13:26.124Z,19.58
2023-02-12T07:14:05.217Z,18.63
2023-02-12T07:16:31.684Z,24.02
2023-02-12T07:18:26.118Z,24.02
2023-02-12T07:18:58.156Z,23.13
2023-02-12T07:21:26.878Z,17.35
2023-02-12T07:23:26.124Z,17.35
2023-02-12T07:23:53.446Z,20.23
2023-02-12T07:26:21.423Z,18.83
2023-02-12T07:28:26.236Z,18.83
2023-02-12T07:28:48.524Z,16.83
2023-02-12T07:31:18.386Z,20.60
2023-02-12T07:33:26.111Z,20.60
2023-02-12T07:33:45.462Z,19.70
2023-02-12T07:36:18.500Z,27.00
2023-02-12T07:38:26.136Z,27.00
2023-02-12T07:38:45.258Z,24.15
2023-02-12T07:41:18.159Z,23.90
2023-02-12T07:43:26.115Z,23.90
2023-02-12T07:43:46.718Z,22.38
2023-02-12T07:46:17.008Z,22.48
2023-02-12T07:48:26.153Z,22.48
2023-02-12T07:48:44.284Z,16.92
2023-02-12T07:51:13.850Z,28.95
2023-02-12T07:53:26.182Z,28.95
2023-02-12T07:53:40.805Z,18.48
2023-02-12T07:56:09.696Z,14.75
2023-02-12T07:58:26.112Z,14.75
2023-02-12T07:58:37.112Z,15.18
2023-02-12T08:01:13.474Z,21.00
2023-02-12T08:03:26.121Z,21.00
2023-02-12T08:03:39.959Z,21.83
2023-02-12T08:06:23.220Z,21.05
2023-02-12T08:08:26.170Z,21.05
2023-02-12T08:08:58.327Z,17.95
2023-02-12T08:11:25.917Z,14.60
2023-02-12T08:13:26.112Z,14.60
2023-02-12T08:13:52.410Z,10.30
2023-02-12T08:16:21.960Z,13.15
2023-02-12T08:18:26.134Z,13.15
2023-02-12T08:18:48.881Z,21.27
2023-02-12T08:21:26.720Z,32.78
2023-02-12T08:23:26.121Z,32.78
2023-02-12T08:23:58.063Z,26.92
2023-02-12T08:26:33.734Z,21.13
2023-02-12T08:28:26.194Z,21.13
2023-02-12T08:29:03.507Z,15.63
2023-02-12T08:31:32.842Z,16.75
2023-02-12T08:33:26.163Z,16.75
2023-02-12T08:34:00.747Z,25.48
2023-02-12T08:36:35.852Z,15.02
2023-02-12T08:38:26.146Z,15.02
2023-02-12T08:39:02.420Z,23.40
2023-02-12T08:41:29.894Z,22.60
2023-02-12T08:43:26.154Z,22.60
2023-02-12T08:44:01.525Z,24.38
2023-02-12T08:46:31.076Z,27.85
2023-02-12T08:48:26.125Z,27.85
2023-02-12T08:49:01.013Z,18.73
2023-02-12T08:51:31.580Z,31.17
2023-02-12T08:53:26.149Z,31.17
2023-02-12T08:54:01.011Z,23.08
2023-02-12T08:56:30.050Z,27.27
2023-02-12T08:58:26.136Z,27.27
2023-02-12T08:59:00.694Z,26.23
2023-02-12T09:01:29.367Z,26.35
2023-02-12T09:03:26.126Z,26.35
2023-02-12T09:03:56.474Z,27.40
2023-02-12T09:06:24.686Z,30.40
2023-02-12T09:08:26.116Z,30.40
2023-02-12T09:08:52.106Z,31.90
2023-02-12T09:11:24.374Z,26.00
2023-02-12T09:13:26.128Z,26.00
2023-02-12T09:13:50.960Z,30.58
2023-02-12T09:16:17.368Z,18.80
2023-02-12T09:18:26.145Z,18.80
2023-02-12T09:18:45.160Z,27.80
2023-02-12T09:21:14.571Z,20.67
2023-02-12T09:23:26.159Z,20.67
2023-02-12T09:23:42.214Z,31.83
2023-02-12T09:26:15.175Z,28.35
2023-02-12T09:28:26.211Z,28.35
2023-02-12T09:28:42.360Z,25.75
2023-02-12T09:31:29.257Z,21.20
2023-02-12T09:33:26.113Z,21.20
2023-02-12T09:33:59.600Z,26.13
2023-02-12T09:36:26.366Z,18.45
2023-02-12T09:38:26.146Z,18.45
2023-02-12T09:38:54.179Z,21.23
2023-02-12T09:41:32.133Z,22.65
2023-02-12T09:43:26.165Z,22.65
2023-02-12T09:44:20.650Z,21.38
2023-02-12T09:46:53.980Z,27.67
2023-02-12T09:48:26.143Z,27.67
2023-02-12T09:49:49.908Z,21.35
2023-02-12T09:52:20.034Z,20.90
2023-02-12T09:53:26.142Z,20.90
2023-02-12T09:54:48.322Z,20.33
2023-02-12T09:57:31.054Z,24.02
2023-02-12T09:58:26.141Z,24.02
2023-02-12T10:00:08.214Z,26.55
2023-02-12T10:02:39.884Z,30.50
2023-02-12T10:03:26.154Z,30.50
2023-02-12T10:05:16.160Z,26.70
2023-02-12T10:08:01.463Z,24.30
2023-02-12T10:08:26.149Z,24.30
2023-02-12T10:10:48.947Z,31.98
2023-02-12T10:13:25.107Z,16.33
2023-02-12T10:13:26.142Z,16.33
2023-02-12T10:15:56.388Z,22.45
2023-02-12T10:18:50.941Z,35.08
2023-02-12T10:18:51.091Z,35.08
2023-02-12T10:21:35.596Z,25.55
2023-02-12T10:23:26.142Z,25.55
2023-02-12T10:24:23.839Z,17.65
2023-02-12T10:26:55.572Z,19.65
2023-02-12T10:28:26.283Z,19.65
2023-02-12T10:29:28.775Z,23.00
2023-02-12T10:32:00.603Z,26.48
2023-02-12T10:33:26.122Z,26.48
2023-02-12T10:34:33.669Z,20.55
2023-02-12T10:37:14.788Z,19.52
2023-02-12T10:38:26.151Z,19.52
2023-02-12T10:39:48.522Z,21.70
2023-02-12T10:42:30.260Z,26.15
2023-02-12T10:43:26.127Z,26.15
2023-02-12T10:44:56.678Z,33.10
2023-02-12T10:47:26.242Z,33.45
2023-02-12T10:48:26.134Z,33.45
2023-02-12T10:49:59.292Z,26.60
2023-02-12T10:52:47.211Z,34.28
2023-02-12T10:53:26.119Z,34.28
2023-02-12T10:55:26.343Z,25.05
2023-02-12T10:57:53.581Z,30.55
2023-02-12T10:58:26.155Z,30.55
2023-02-12T11:00:30.520Z,24.00
2023-02-12T11:03:10.770Z,23.88
2023-02-12T11:03:26.142Z,23.88
2023-02-12T11:05:43.797Z,22.67
2023-02-12T11:08:36.113Z,22.92
2023-02-12T11:08:36.255Z,22.92
2023-02-12T11:11:06.234Z,25.58
2023-02-12T11:13:26.175Z,25.58
2023-02-12T11:13:32.764Z,26.35
2023-02-12T11:16:01.076Z,34.33
2023-02-12T11:18:26.290Z,34.33
2023-02-12T11:18:32.824Z,28.88
2023-02-12T11:21:06.921Z,28.15
2023-02-12T11:23:26.153Z,28.15
2023-02-12T11:23:38.147Z,29.38
2023-02-12T11:26:06.721Z,33.60
2023-02-12T11:28:26.371Z,33.60
2023-02-12T11:28:36.554Z,25.05
2023-02-12T11:31:13.737Z,28.67
2023-02-12T11:33:26.131Z,28.67
2023-02-12T11:33:40.359Z,30.92
2023-02-12T11:36:26.102Z,22.40
2023-02-12T11:38:26.221Z,22.40
2023-02-12T11:38:57.981Z,31.10
2023-02-12T11:41:36.204Z,23.23
2023-02-12T11:43:26.160Z,23.23
2023-02-12T11:44:12.078Z,26.85
2023-02-12T11:46:39.999Z,31.98
2023-02-12T11:48:26.251Z,31.98
2023-02-12T11:49:09.323Z,32.70
2023-02-12T11:51:37.583Z,29.17
2023-02-12T11:53:26.165Z,29.17
2023-02-12T11:54:06.180Z,23.30
2023-02-12T11:56:46.647Z,22.15
2023-02-12T11:58:26.161Z,22.15
2023-02-12T11:59:31.774Z,20.08
2023-02-12T12:02:05.083Z,31.48
2023-02-12T12:03:26.219Z,31.48
2023-02-12T12:04:34.418Z,25.95
2023-02-12T12:07:08.606Z,21.45
2023-02-12T12:08:26.154Z,21.45
2023-02-12T12:10:19.716Z,25.00
2023-02-12T12:12:51.106Z,33.22
2023-02-12T12:13:26.175Z,33.22
2023-02-12T12:16:03.562Z,25.75
2023-02-12T12:18:26.156Z,25.75
2023-02-12T12:19:04.867Z,25.58
2023-02-12T12:22:04.068Z,26.75
2023-02-12T12:23:26.150Z,26.75
2023-02-12T12:24:57.285Z,22.83
2023-02-12T12:28:01.149Z,22.77
2023-02-12T12:28:26.228Z,22.77
2023-02-12T12:30:45.599Z,31.38
2023-02-12T12:33:21.072Z,31.05
2023-02-12T12:33:26.177Z,31.05
2023-02-12T12:36:06.311Z,23.52
2023-02-12T12:38:26.162Z,23.52
2023-02-12T12:38:42.565Z,26.27
2023-02-12T12:41:28.321Z,17.48
2023-02-12T12:43:26.125Z,17.48
2023-02-12T12:44:24.308Z,21.40
2023-02-12T12:46:59.797Z,31.25
2023-02-12T12:48:26.202Z,31.25
2023-02-12T12:49:40.175Z,23.05
2023-02-12T12:52:26.915Z,19.10
2023-02-12T12:53:26.171Z,19.10
2023-02-12T12:55:06.618Z,21.58
2023-02-12T12:58:20.362Z,21.02
2023-02-12T12:58:26.171Z,21.02
2023-02-12T13:01:06.196Z,18.08
2023-02-12T13:03:26.180Z,18.08
2023-02-12T13:03:55.253Z,21.52
2023-02-12T13:06:35.828Z,22.23
2023-02-12T13:08:26.168Z,22.23
2023-02-12T13:09:08.423Z,16.70
2023-02-12T13:13:26.166Z,8.85
2023-02-12T13:14:25.534Z,18.17
2023-02-12T13:17:03.768Z,18.73
2023-02-12T13:18:26.173Z,18.73
2023-02-12T13:19:51.864Z,12.90
2023-02-12T13:22:53.371Z,21.70
2023-02-12T13:23:26.161Z,21.70
2023-02-12T13:25:38.311Z,18.95
2023-02-12T13:28:09.795Z,21.55
2023-02-12T13:28:26.175Z,21.55
2023-02-12T13:30:49.841Z,25.98
2023-02-12T13:33:24.002Z,26.83
2023-02-12T13:33:26.162Z,26.83
2023-02-12T13:35:55.271Z,24.13
2023-02-12T13:38:31.327Z,28.60
2023-02-12T13:38:31.460Z,28.60
2023-02-12T13:41:02.061Z,23.27
2023-02-12T13:43:26.168Z,23.27
2023-02-12T13:43:47.187Z,25.35
2023-02-12T13:46:40.555Z,20.67
2023-02-12T13:48:26.171Z,20.67
2023-02-12T13:49:32.162Z,21.55
2023-02-12T13:52:14.210Z,20.45
2023-02-12T13:53:26.153Z,20.45
2023-02-12T13:54:56.076Z,19.27
2023-02-12T13:57:22.657Z,23.20
2023-02-12T13:58:26.180Z,23.20
2023-02-12T13:59:54.102Z,33.85
2023-02-12T14:02:43.168Z,21.35
2023-02-12T14:03:26.191Z,21.35
2023-02-12T14:05:30.112Z,21.10
2023-02-12T14:08:00.038Z,21.95
2023-02-12T14:08:26.151Z,21.95
2023-02-12T14:10:41.526Z,33.85
2023-02-12T14:13:17.491Z,25.73
2023-02-12T14:13:26.227Z,25.73
2023-02-12T14:15:51.056Z,27.70
2023-02-12T14:18:43.933Z,16.50
2023-02-12T14:18:44.095Z,16.50
2023-02-12T14:21:13.064Z,27.40
2023-02-12T14:23:26.156Z,27.40
2023-02-12T14:23:45.928Z,16.60
2023-02-12T14:26:18.120Z,27.40
2023-02-12T14:28:26.173Z,27.40
2023-02-12T14:28:47.285Z,16.15
2023-02-12T14:31:19.909Z,15.80
2023-02-12T14:33:26.173Z,15.80
2023-02-12T14:33:48.894Z,16.13
2023-02-12T14:36:19.978Z,23.13
2023-02-12T14:38:26.998Z,23.13
2023-02-12T14:38:47.846Z,19.08
2023-02-12T14:41:37.524Z,27.65
2023-02-12T14:43:26.170Z,27.65
2023-02-12T14:44:27.315Z,18.95
2023-02-12T14:46:56.094Z,16.70
2023-02-12T14:48:26.164Z,16.70
2023-02-12T14:49:29.939Z,20.80
2023-02-12T14:52:15.152Z,22.15
2023-02-12T14:53:26.176Z,22.15
2023-02-12T14:55:00.885Z,24.33
2023-02-12T14:57:39.954Z,16.80
2023-02-12T14:58:26.161Z,16.80
2023-02-12T15:00:18.737Z,22.50
2023-02-12T15:02:59.820Z,21.33
2023-02-12T15:03:26.169Z,21.33
2023-02-12T15:05:30.346Z,20.67
2023-02-12T15:08:13.891Z,19.17
2023-02-12T15:08:26.186Z,19.17
2023-02-12T15:10:58.150Z,21.73
2023-02-12T15:13:47.959Z,16.60
2023-02-12T15:13:48.126Z,16.60
2023-02-12T15:16:24.417Z,17.52
2023-02-12T15:18:26.140Z,17.52
2023-02-12T15:19:00.368Z,23.05
2023-02-12T15:21:29.086Z,19.00
2023-02-12T15:23:26.169Z,19.00
2023-02-12T15:24:09.127Z,21.58
2023-02-12T15:26:48.601Z,14.25
2023-02-12T15:28:26.233Z,14.25
2023-02-12T15:29:41.135Z,15.52
2023-02-12T15:32:15.114Z,16.27
2023-02-12T15:33:26.147Z,16.27
2023-02-12T15:34:42.859Z,20.65
2023-02-12T15:37:09.940Z,20.02
2023-02-12T15:38:26.168Z,20.02
2023-02-12T15:39:44.796Z,13.65
2023-02-12T15:42:52.289Z,40.65
2023-02-12T15:43:26.168Z,40.65
2023-02-12T15:45:22.510Z,16.85
2023-02-12T15:48:12.336Z,17.83
2023-02-12T15:48:26.165Z,17.83
2023-02-12T15:51:06.427Z,18.40
2023-02-12T15:53:26.180Z,18.40
2023-02-12T15:53:33.646Z,25.67
2023-02-12T15:56:01.919Z,26.13
2023-02-12T15:58:26.167Z,26.13
2023-02-12T15:58:53.069Z,21.67
2023-02-12T16:01:22.648Z,31.95
2023-02-12T16:03:26.180Z,31.95
2023-02-12T16:03:52.340Z,21.58
2023-02-12T16:06:21.096Z,30.05
2023-02-12T16:08:26.162Z,30.05
2023-02-12T16:08:57.036Z,35.35
2023-02-12T16:11:25.437Z,15.82
2023-02-12T16:13:26.174Z,15.82
2023-02-12T16:13:55.807Z,21.45
2023-02-12T16:16:31.087Z,18.80
2023-02-12T16:18:26.162Z,18.80
2023-02-12T16:19:18.390Z,22.23
2023-02-12T16:21:48.179Z,20.80
2023-02-12T16:23:26.181Z,20.80
2023-02-12T16:24:35.711Z,20.27
2023-02-12T16:27:09.564Z,17.60
2023-02-12T16:28:26.246Z,17.60
2023-02-12T16:29:43.677Z,15.05
2023-02-12T16:32:31.000Z,17.05
2023-02-12T16:33:26.157Z,17.05
2023-02-12T16:35:09.667Z,21.08
2023-02-12T16:37:35.974Z,14.65
2023-02-12T16:38:26.152Z,14.65
2023-02-12T16:40:14.235Z,20.85
2023-02-12T16:42:46.596Z,18.40
2023-02-12T16:43:26.192Z,18.40
2023-02-12T16:45:24.972Z,34.67
2023-02-12T16:47:52.793Z,17.55
2023-02-12T16:48:26.154Z,17.55
2023-02-12T16:50:23.748Z,13.68
2023-02-12T16:53:00.018Z,17.20
2023-02-12T16:53:26.177Z,17.20
2023-02-12T16:55:26.480Z,19.63
2023-02-12T16:57:52.936Z,17.33
2023-02-12T16:58:26.160Z,17.33
2023-02-12T17:00:19.818Z,26.42
2023-02-12T17:02:47.228Z,42.10
2023-02-12T17:03:26.213Z,42.10
2023-02-12T17:05:16.926Z,23.52
2023-02-12T17:07:43.710Z,29.95
2023-02-12T17:08:26.169Z,29.95
2023-02-12T17:10:17.315Z,24.63
2023-02-12T17:12:52.122Z,16.38
2023-02-12T17:13:26.160Z,16.38
2023-02-12T17:15:29.076Z,28.17
2023-02-12T17:17:55.457Z,17.85
2023-02-12T17:18:26.157Z,17.85
2023-02-12T17:20:22.101Z,19.38
2023-02-12T17:22:55.111Z,20.67
2023-02-12T17:23:26.200Z,20.67
2023-02-12T17:25:21.631Z,33.03
2023-02-12T17:27:47.996Z,19.55
2023-02-12T17:28:26.426Z,19.55
2023-02-12T17:30:19.541Z,13.65
2023-02-12T17:32:45.915Z,15.10
2023-02-12T17:33:26.161Z,15.10
2023-02-12T17:35:12.795Z,21.02
2023-02-12T17:37:39.225Z,22.80
2023-02-12T17:38:26.386Z,22.80
2023-02-12T17:40:06.893Z,34.13
2023-02-12T17:42:33.498Z,32.47
2023-02-12T17:43:26.164Z,32.47
2023-02-12T17:44:59.989Z,29.33
2023-02-12T17:47:26.423Z,24.92
2023-02-12T17:48:26.207Z,24.92
2023-02-12T17:49:53.148Z,23.95
2023-02-12T17:52:19.519Z,30.80
2023-02-12T17:53:26.169Z,30.80
2023-02-12T17:54:46.164Z,15.32
2023-02-12T17:57:14.671Z,23.92
2023-02-12T17:58:26.166Z,23.92
2023-02-12T17:59:41.579Z,22.88
2023-02-12T18:02:10.572Z,18.50
2023-02-12T18:03:26.187Z,18.50
2023-02-12T18:04:37.013Z,15.68
2023-02-12T18:07:04.617Z,28.50
2023-02-12T18:08:26.229Z,28.50
2023-02-12T18:09:31.402Z,19.70
2023-02-12T18:11:57.812Z,22.70
2023-02-12T18:13:26.164Z,22.70
2023-02-12T18:14:24.160Z,20.85
2023-02-12T18:16:50.712Z,21.08
2023-02-12T18:18:26.167Z,21.08
2023-02-12T18:19:17.308Z,17.40
2023-02-12T18:21:43.683Z,22.63
2023-02-12T18:23:26.153Z,22.63
2023-02-12T18:24:10.673Z,18.20
2023-02-12T18:26:37.096Z,19.05
2023-02-12T18:28:26.256Z,19.05
2023-02-12T18:29:03.544Z,16.33
2023-02-12T18:31:30.379Z,19.92
2023-02-12T18:33:26.210Z,19.92
2023-02-12T18:33:56.875Z,18.92
2023-02-12T18:36:23.454Z,18.85
2023-02-12T18:38:26.162Z,18.85
2023-02-12T18:38:51.754Z,17.63
2023-02-12T18:41:25.174Z,17.58
2023-02-12T18:43:26.182Z,17.58
2023-02-12T18:43:52.412Z,18.90
2023-02-12T18:46:23.945Z,13.88
2023-02-12T18:48:26.159Z,13.88
2023-02-12T18:48:50.909Z,13.48
2023-02-12T18:51:23.392Z,15.70
2023-02-12T18:53:26.195Z,15.70
2023-02-12T18:54:05.265Z,11.88
2023-02-12T18:56:35.578Z,11.68
2023-02-12T18:58:26.162Z,11.68
2023-02-12T18:59:04.748Z,13.52
2023-02-12T19:01:32.828Z,22.25
2023-02-12T19:03:26.197Z,22.25
2023-02-12T19:04:02.810Z,21.10
2023-02-12T19:06:31.009Z,15.88
2023-02-12T19:08:26.168Z,15.88
2023-02-12T19:08:59.153Z,20.02
2023-02-12T19:11:26.784Z,17.75
2023-02-12T19:13:26.193Z,17.75
2023-02-12T19:13:53.475Z,24.23
2023-02-12T19:16:21.276Z,16.58
2023-02-12T19:18:26.196Z,16.58
2023-02-12T19:18:54.634Z,17.00
2023-02-12T19:21:22.227Z,26.67
2023-02-12T19:23:28.215Z,26.67
2023-02-12T19:23:52.255Z,17.90
2023-02-12T19:26:18.939Z,14.98
2023-02-12T19:28:26.196Z,14.98
2023-02-12T19:28:45.470Z,18.73
2023-02-12T19:31:15.794Z,15.52
2023-02-12T19:33:26.175Z,15.52
2023-02-12T19:33:43.888Z,14.50
2023-02-12T19:36:12.510Z,24.90
2023-02-12T19:38:26.161Z,24.90
2023-02-12T19:38:39.197Z,19.10
2023-02-12T19:41:08.661Z,12.63
2023-02-12T19:43:26.194Z,12.63
2023-02-12T19:43:35.311Z,10.23
2023-02-12T19:46:10.271Z,9.25
2023-02-12T19:48:26.186Z,9.25
2023-02-12T19:48:37.410Z,10.10
2023-02-12T19:51:04.724Z,9.80
2023-02-12T19:53:26.152Z,9.80
2023-02-12T19:53:31.766Z,11.25
2023-02-12T19:56:02.710Z,10.88
2023-02-12T19:58:26.189Z,10.88
2023-02-12T19:58:31.752Z,7.85
2023-02-12T20:00:58.496Z,7.47
2023-02-12T20:03:26.310Z,6.75
2023-02-12T20:03:26.459Z,6.75
2023-02-12T20:06:04.563Z,10.45
2023-02-12T20:08:26.176Z,10.45
2023-02-12T20:08:33.196Z,6.65
2023-02-12T20:10:59.508Z,5.63
2023-02-12T20:13:25.882Z,6.25
2023-02-12T20:13:26.194Z,6.25
2023-02-12T20:15:52.382Z,8.35
2023-02-12T20:18:18.786Z,7.93
2023-02-12T20:18:26.170Z,7.93
2023-02-12T20:20:45.166Z,7.43
2023-02-12T20:23:13.916Z,6.28
2023-02-12T20:23:26.170Z,6.28
2023-02-12T20:25:44.395Z,6.70
2023-02-12T20:28:11.266Z,6.80
2023-02-12T20:28:26.188Z,6.80
2023-02-12T20:30:42.223Z,6.63
2023-02-12T20:33:09.919Z,5.55
2023-02-12T20:33:26.202Z,5.55
2023-02-12T20:35:37.284Z,6.45
2023-02-12T20:38:07.146Z,16.15
2023-02-12T20:38:26.175Z,16.15
2023-02-12T20:40:33.653Z,5.55
2023-02-12T20:43:00.805Z,5.90
2023-02-12T20:43:26.189Z,5.90
2023-02-12T20:45:27.942Z,6.68
2023-02-12T20:47:54.360Z,7.22
2023-02-12T20:48:26.171Z,7.22
2023-02-12T20:50:20.770Z,7.38
2023-02-12T20:52:47.428Z,6.65
2023-02-12T20:53:26.197Z,6.65
2023-02-12T20:55:13.771Z,5.35
2023-02-12T20:57:40.207Z,6.68
2023-02-12T20:58:26.187Z,6.68
2023-02-12T21:00:07.307Z,6.68
2023-02-12T21:02:33.685Z,8.60
2023-02-12T21:05:00.657Z,8.52
2023-02-12T21:07:27.052Z,9.90
2023-02-12T21:08:26.190Z,9.90
2023-02-12T21:09:54.217Z,9.90
2023-02-12T21:12:20.660Z,6.00
2023-02-12T21:13:26.217Z,6.00
2023-02-12T21:14:47.054Z,8.93
2023-02-12T21:17:13.426Z,8.35
2023-02-12T21:18:26.200Z,8.35
2023-02-12T21:19:39.806Z,6.35
2023-02-12T21:22:06.224Z,8.98
2023-02-12T21:23:26.171Z,8.98
2023-02-12T21:24:33.927Z,6.57
2023-02-12T21:27:00.381Z,6.32
2023-02-12T21:28:26.219Z,6.32
2023-02-12T21:29:29.120Z,6.20
2023-02-12T21:31:55.790Z,6.95
2023-02-12T21:33:26.449Z,6.95
2023-02-12T21:34:23.433Z,6.10
2023-02-12T21:36:52.189Z,7.50
2023-02-12T21:38:26.186Z,7.50
2023-02-12T21:39:24.526Z,10.48
2023-02-12T21:42:00.094Z,5.85
2023-02-12T21:43:26.171Z,5.85
2023-02-12T21:44:27.234Z,5.63
2023-02-12T21:46:54.013Z,6.07
2023-02-12T21:48:26.190Z,6.07
2023-02-12T21:49:28.164Z,6.90
2023-02-12T21:51:58.142Z,10.43
2023-02-12T21:53:26.155Z,10.43